createdAt,value
2022-12-08T00:00:02.632Z,98816.38
2022-12-08T00:01:21.864Z,98812.06
2022-12-08T00:04:16.508Z,98816.47
2022-12-08T00:05:43.789Z,98814.84
2022-12-08T00:05:50.345Z,98813.03
2022-12-08T00:07:22.105Z,98813.75
2022-12-08T00:08:45.214Z,98810.69
2022-12-08T00:09:50.003Z,98815.69
2022-12-08T00:10:53.473Z,98815.78
2022-12-08T00:12:02.614Z,98817.41
2022-12-08T00:13:07.534Z,98819.09
2022-12-08T00:14:10.939Z,98811.13
2022-12-08T00:15:14.462Z,98818.50
2022-12-08T00:16:17.882Z,98816.56
2022-12-08T00:17:21.658Z,98814.25
2022-12-08T00:18:25.860Z,98823.59
2022-12-08T00:19:43.158Z,98807.88
2022-12-08T00:20:46.807Z,98820.03
2022-12-08T00:21:52.897Z,98813.03
2022-12-08T00:23:09.038Z,98814.84
2022-12-08T00:24:18.922Z,98820.88
2022-12-08T00:25:31.779Z,98823.59
2022-12-08T00:26:38.890Z,98822.50
2022-12-08T00:27:47.682Z,98828.78
2022-12-08T00:28:54.522Z,98822.69
2022-12-08T00:29:57.916Z,98822.16
2022-12-08T00:31:08.703Z,98828.19
2022-12-08T00:32:12.542Z,98825.63
2022-12-08T00:33:16.061Z,98823.25
2022-12-08T00:34:19.996Z,98821.47
2022-12-08T00:35:23.339Z,98824.09
2022-12-08T00:36:27.087Z,98822.50
2022-12-08T00:37:30.976Z,98822.41
2022-12-08T00:38:37.832Z,98832.84
2022-12-08T00:39:41.339Z,98821.47
2022-12-08T00:40:48.574Z,98823.84
2022-12-08T00:42:11.739Z,98826.50
2022-12-08T00:43:15.522Z,98826.31
2022-12-08T00:44:19.753Z,98820.38
2022-12-08T00:45:23.511Z,98829.88
2022-12-08T00:46:26.901Z,98820.94
2022-12-08T00:47:30.259Z,98832.25
2022-12-08T00:48:33.974Z,98823.53
2022-12-08T00:49:42.311Z,98829.13
2022-12-08T00:50:51.087Z,98833.34
2022-12-08T00:51:55.662Z,98828.84
2022-12-08T00:53:16.715Z,98833.78
2022-12-08T00:54:25.954Z,98827.66
2022-12-08T00:55:56.150Z,98830.16
2022-12-08T00:57:00.665Z,98827.34
2022-12-08T00:58:07.455Z,98831.75
2022-12-08T00:59:14.168Z,98829.03
2022-12-08T01:00:20.796Z,98832.44
2022-12-08T01:01:29.825Z,98834.19
2022-12-08T01:02:46.698Z,98838.47
2022-12-08T01:03:53.138Z,98826.25
2022-12-08T01:05:17.244Z,98835.94
2022-12-08T01:06:27.507Z,98841.00
2022-12-08T01:07:31.771Z,98840.16
2022-12-08T01:08:41.459Z,98844.69
2022-12-08T01:09:47.864Z,98844.72
2022-12-08T01:11:03.634Z,98844.72
2022-12-08T01:12:13.184Z,98841.19
2022-12-08T01:13:19.831Z,98841.09
2022-12-08T01:14:23.567Z,98846.50
2022-12-08T01:15:27.162Z,98842.19
2022-12-08T01:16:34.364Z,98844.69
2022-12-08T01:17:38.685Z,98852.56
2022-12-08T01:18:42.043Z,98852.63
2022-12-08T01:19:45.464Z,98851.03
2022-12-08T01:20:48.948Z,98850.88
2022-12-08T01:21:52.356Z,98849.84
2022-12-08T01:22:55.963Z,98849.75
2022-12-08T01:24:03.056Z,98848.06
2022-12-08T01:25:07.988Z,98849.75
2022-12-08T01:26:14.845Z,98844.69
2022-12-08T01:27:18.416Z,98845.53
2022-12-08T01:28:22.135Z,98848.50
2022-12-08T01:29:27.514Z,98839.66
2022-12-08T01:30:32.498Z,98839.47
2022-12-08T01:31:36.267Z,98844.81
2022-12-08T01:32:40.084Z,98840.41
2022-12-08T01:33:45.127Z,98837.09
2022-12-08T01:34:48.542Z,98845.84
2022-12-08T01:35:52.785Z,98840.69
2022-12-08T01:36:56.440Z,98836.25
2022-12-08T01:38:01.515Z,98836.16
2022-12-08T01:39:11.616Z,98835.13
2022-12-08T01:40:19.174Z,98836.25
2022-12-08T01:41:27.671Z,98840.50
2022-12-08T01:42:32.691Z,98834.13
2022-12-08T01:43:59.353Z,98841.63
2022-12-08T01:45:21.828Z,98836.34
2022-12-08T01:46:27.530Z,98840.81
2022-12-08T01:47:53.459Z,98837.25
2022-12-08T01:49:16.394Z,98832.00
2022-12-08T01:50:23.354Z,98831.09
2022-12-08T01:51:43.686Z,98833.78
2022-12-08T01:52:55.232Z,98834.81
2022-12-08T01:54:00.492Z,98827.66
2022-12-08T01:55:41.841Z,98831.31
2022-12-08T01:57:23.904Z,98832.34
2022-12-08T01:58:43.015Z,98831.41
2022-12-08T02:00:10.429Z,98835.75
2022-12-08T02:01:15.894Z,98839.22
2022-12-08T02:02:23.196Z,98835.47
2022-12-08T02:04:01.553Z,98838.09
2022-12-08T02:05:13.978Z,98828.50
2022-12-08T02:06:19.827Z,98842.94
2022-12-08T02:07:27.727Z,98843.69
2022-12-08T02:08:34.944Z,98840.06
2022-12-08T02:09:40.662Z,98841.00
2022-12-08T02:10:44.426Z,98840.06
2022-12-08T02:11:49.616Z,98838.44
2022-12-08T02:13:00.494Z,98846.19
2022-12-08T02:14:10.071Z,98843.63
2022-12-08T02:15:16.486Z,98844.47
2022-12-08T02:16:56.929Z,98843.88
2022-12-08T02:18:21.900Z,98845.13
2022-12-08T02:19:43.705Z,98847.00
2022-12-08T02:21:48.104Z,98845.31
2022-12-08T02:23:18.578Z,98842.75
2022-12-08T02:25:25.081Z,98842.91
2022-12-08T02:27:11.836Z,98847.34
2022-12-08T02:28:43.385Z,98844.72
2022-12-08T02:30:28.728Z,98847.50
2022-12-08T02:32:52.939Z,98850.91
2022-12-08T02:35:20.381Z,98857.16
2022-12-08T02:36:56.910Z,98851.22
2022-12-08T02:38:41.361Z,98853.69
2022-12-08T02:39:58.568Z,98857.34
2022-12-08T02:41:31.261Z,98851.41
2022-12-08T02:42:59.376Z,98848.16
2022-12-08T02:44:38.166Z,98850.78
2022-12-08T02:46:25.651Z,98842.88
2022-12-08T02:47:33.320Z,98848.16
2022-12-08T02:48:42.201Z,98849.00
2022-12-08T02:49:47.465Z,98846.47
2022-12-08T02:51:07.261Z,98847.41
2022-12-08T02:52:15.203Z,98851.72
2022-12-08T02:53:22.535Z,98854.34
2022-12-08T02:54:27.734Z,98845.53
2022-12-08T02:56:13.370Z,98843.88
2022-12-08T02:58:15.170Z,98847.31
2022-12-08T02:59:50.180Z,98845.84
2022-12-08T03:01:05.740Z,98853.72
2022-12-08T03:02:41.731Z,98850.09
2022-12-08T03:04:22.065Z,98851.00
2022-12-08T03:05:59.629Z,98856.53
2022-12-08T03:07:32.153Z,98854.91
2022-12-08T03:08:43.349Z,98851.41
2022-12-08T03:09:56.580Z,98851.34
2022-12-08T03:11:22.032Z,98852.25
2022-12-08T03:12:42.162Z,98846.25
2022-12-08T03:14:00.236Z,98846.25
2022-12-08T03:15:23.462Z,98842.75
2022-12-08T03:16:42.391Z,98847.09
2022-12-08T03:18:03.081Z,98842.75
2022-12-08T03:19:42.185Z,98842.91
2022-12-08T03:21:03.205Z,98842.84
2022-12-08T03:22:24.812Z,98842.84
2022-12-08T03:23:35.700Z,98839.44
2022-12-08T03:24:47.316Z,98840.44
2022-12-08T03:26:21.186Z,98845.81
2022-12-08T03:27:34.559Z,98841.38
2022-12-08T03:28:42.528Z,98843.16
2022-12-08T03:30:03.200Z,98842.22
2022-12-08T03:31:16.250Z,98847.59
2022-12-08T03:32:50.079Z,98842.22
2022-12-08T03:34:10.073Z,98842.31
2022-12-08T03:35:30.298Z,98846.66
2022-12-08T03:36:52.166Z,98843.25
2022-12-08T03:38:20.423Z,98834.53
2022-12-08T03:39:31.034Z,98835.38
2022-12-08T03:40:41.544Z,98839.69
2022-12-08T03:41:55.365Z,98835.38
2022-12-08T03:43:00.078Z,98844.00
2022-12-08T03:44:21.337Z,98835.28
2022-12-08T03:45:34.197Z,98835.19
2022-12-08T03:46:44.701Z,98832.66
2022-12-08T03:47:57.886Z,98830.88
2022-12-08T03:49:32.129Z,98831.72
2022-12-08T03:50:42.878Z,98835.38
2022-12-08T03:51:58.875Z,98838.91
2022-12-08T03:53:07.519Z,98835.38
2022-12-08T03:54:24.673Z,98835.38
2022-12-08T03:55:48.743Z,98834.53
2022-12-08T03:57:14.951Z,98838.91
2022-12-08T03:58:20.589Z,98835.38
2022-12-08T03:59:28.496Z,98832.88
2022-12-08T04:00:36.044Z,98833.97
2022-12-08T04:01:41.893Z,98833.91
2022-12-08T04:02:52.541Z,98834.84
2022-12-08T04:03:56.530Z,98833.91
2022-12-08T04:05:16.876Z,98836.53
2022-12-08T04:06:28.047Z,98834.66
2022-12-08T04:07:32.307Z,98833.06
2022-12-08T04:08:36.018Z,98829.50
2022-12-08T04:09:41.675Z,98833.81
2022-12-08T04:10:46.127Z,98839.06
2022-12-08T04:11:49.864Z,98839.91
2022-12-08T04:12:53.549Z,98835.50
2022-12-08T04:13:57.493Z,98840.75
2022-12-08T04:15:00.902Z,98834.84
2022-12-08T04:16:05.675Z,98836.44
2022-12-08T04:17:13.029Z,98833.72
2022-12-08T04:18:18.884Z,98833.81
2022-12-08T04:19:24.866Z,98829.25
2022-12-08T04:20:29.125Z,98826.63
2022-12-08T04:21:37.514Z,98831.63
2022-12-08T04:22:45.585Z,98830.78
2022-12-08T04:23:57.621Z,98830.59
2022-12-08T04:25:09.157Z,98835.03
2022-12-08T04:26:15.830Z,98827.91
2022-12-08T04:27:19.960Z,98825.28
2022-12-08T04:28:24.674Z,98820.78
2022-12-08T04:29:34.239Z,98833.84
2022-12-08T04:30:41.868Z,98827.06
2022-12-08T04:31:50.721Z,98836.56
2022-12-08T04:32:54.517Z,98832.06
2022-12-08T04:33:59.988Z,98833.00
2022-12-08T04:35:05.347Z,98831.97
2022-12-08T04:36:12.520Z,98827.59
2022-12-08T04:37:23.829Z,98825.88
2022-12-08T04:38:30.155Z,98831.94
2022-12-08T04:39:35.291Z,98826.66
2022-12-08T04:40:41.643Z,98831.13
2022-12-08T04:41:47.317Z,98830.22
2022-12-08T04:42:51.780Z,98824.03
2022-12-08T04:43:56.525Z,98829.28
2022-12-08T04:45:01.071Z,98831.09
2022-12-08T04:46:09.725Z,98829.28
2022-12-08T04:47:17.157Z,98824.88
2022-12-08T04:48:24.582Z,98823.94
2022-12-08T04:49:38.953Z,98826.50
2022-12-08T04:50:50.812Z,98820.38
2022-12-08T04:51:57.128Z,98820.38
2022-12-08T04:53:03.180Z,98818.78
2022-12-08T04:54:09.144Z,98817.94
2022-12-08T04:55:13.046Z,98817.00
2022-12-08T04:56:20.150Z,98821.22
2022-12-08T04:57:27.701Z,98817.75
2022-12-08T04:58:33.289Z,98822.94
2022-12-08T04:59:37.666Z,98822.94
2022-12-08T05:00:42.116Z,98814.94
2022-12-08T05:01:45.786Z,98815.81
2022-12-08T05:02:57.158Z,98816.69
2022-12-08T05:04:01.378Z,98819.31
2022-12-08T05:05:18.580Z,98824.47
2022-12-08T05:06:30.610Z,98824.38
2022-12-08T05:07:35.610Z,98820.91
2022-12-08T05:08:43.614Z,98823.53
2022-12-08T05:09:48.382Z,98819.22
2022-12-08T05:11:29.931Z,98817.44
2022-12-08T05:12:35.683Z,98816.69
2022-12-08T05:13:47.366Z,98815.66
2022-12-08T05:14:52.015Z,98807.75
2022-12-08T05:16:21.070Z,98818.09
2022-12-08T05:17:27.743Z,98818.09
2022-12-08T05:18:33.866Z,98820.72
2022-12-08T05:19:37.770Z,98813.69
2022-12-08T05:20:44.452Z,98820.81
2022-12-08T05:21:48.746Z,98812.84
2022-12-08T05:22:53.423Z,98817.09
2022-12-08T05:23:57.333Z,98816.25
2022-12-08T05:25:03.398Z,98817.19
2022-12-08T05:26:11.391Z,98817.97
2022-12-08T05:27:17.839Z,98815.31
2022-12-08T05:28:43.783Z,98819.66
2022-12-08T05:29:53.725Z,98816.31
2022-12-08T05:31:06.898Z,98818.28
2022-12-08T05:32:12.452Z,98819.97
2022-12-08T05:33:19.930Z,98822.50
2022-12-08T05:34:32.971Z,98820.69
2022-12-08T05:35:43.916Z,98821.53
2022-12-08T05:36:48.548Z,98822.28
2022-12-08T05:37:55.194Z,98829.34
2022-12-08T05:39:02.045Z,98821.59
2022-12-08T05:40:08.688Z,98823.44
2022-12-08T05:41:20.756Z,98819.81
2022-12-08T05:42:25.278Z,98824.16
2022-12-08T05:43:33.198Z,98816.25
2022-12-08T05:44:37.476Z,98819.81
2022-12-08T05:45:47.315Z,98825.09
2022-12-08T05:46:51.031Z,98828.56
2022-12-08T05:48:01.376Z,98825.25
2022-12-08T05:49:06.715Z,98826.94
2022-12-08T05:50:15.285Z,98827.78
2022-12-08T05:51:27.339Z,98825.25
2022-12-08T05:52:32.284Z,98827.25
2022-12-08T05:53:41.185Z,98827.25
2022-12-08T05:54:46.685Z,98834.25
2022-12-08T05:55:54.725Z,98832.50
2022-12-08T05:56:58.288Z,98832.50
2022-12-08T05:58:15.185Z,98834.28
2022-12-08T05:59:23.964Z,98829.88
2022-12-08T06:00:31.715Z,98833.44
2022-12-08T06:01:42.625Z,98829.88
2022-12-08T06:02:47.864Z,98837.78
2022-12-08T06:03:52.761Z,98836.06
2022-12-08T06:04:56.518Z,98839.66
2022-12-08T06:06:00.093Z,98841.50
2022-12-08T06:07:03.653Z,98851.19
2022-12-08T06:08:11.407Z,98848.69
2022-12-08T06:09:14.983Z,98847.75
2022-12-08T06:10:18.832Z,98846.06
2022-12-08T06:11:27.185Z,98844.28
2022-12-08T06:12:30.689Z,98845.41
2022-12-08T06:13:35.570Z,98844.47
2022-12-08T06:14:43.022Z,98851.50
2022-12-08T06:15:48.185Z,98855.91
2022-12-08T06:16:51.701Z,98857.63
2022-12-08T06:17:55.343Z,98861.94
2022-12-08T06:19:00.073Z,98862.88
2022-12-08T06:20:15.259Z,98868.97
2022-12-08T06:21:21.307Z,98864.56
2022-12-08T06:22:32.125Z,98862.88
2022-12-08T06:23:38.066Z,98866.44
2022-12-08T06:24:42.211Z,98864.66
2022-12-08T06:25:47.885Z,98866.25
2022-12-08T06:26:55.419Z,98867.13
2022-12-08T06:28:00.272Z,98863.56
2022-12-08T06:29:08.928Z,98864.34
2022-12-08T06:30:20.081Z,98849.53
2022-12-08T06:31:30.979Z,98858.28
2022-12-08T06:32:37.705Z,98855.91
2022-12-08T06:33:42.359Z,98865.34
2022-12-08T06:34:48.584Z,98863.56
2022-12-08T06:35:56.515Z,98867.91
2022-12-08T06:37:01.713Z,98872.31
2022-12-08T06:38:09.353Z,98872.22
2022-12-08T06:39:27.347Z,98874.88
2022-12-08T06:40:33.995Z,98873.22
2022-12-08T06:41:57.967Z,98874.00
2022-12-08T06:43:02.091Z,98874.94
2022-12-08T06:44:20.318Z,98880.13
2022-12-08T06:45:25.865Z,98876.56
2022-12-08T06:46:34.634Z,98873.06
2022-12-08T06:47:40.346Z,98880.03
2022-12-08T06:48:46.677Z,98876.47
2022-12-08T06:49:51.000Z,98886.06
2022-12-08T06:50:56.176Z,98878.16
2022-12-08T06:52:00.176Z,98878.09
2022-12-08T06:53:06.223Z,98879.72
2022-12-08T06:54:12.394Z,98877.00
2022-12-08T06:55:42.707Z,98878.69
2022-12-08T06:56:43.531Z,98878.69
2022-12-08T06:57:54.098Z,98883.81
2022-12-08T06:59:01.219Z,98885.50
2022-12-08T07:00:12.175Z,98881.09
2022-12-08T07:01:18.490Z,98882.78
2022-12-08T07:02:29.665Z,98884.59
2022-12-08T07:03:44.170Z,98882.63
2022-12-08T07:04:49.438Z,98877.38
2022-12-08T07:06:03.290Z,98877.38
2022-12-08T07:07:15.522Z,98883.41
2022-12-08T07:08:20.316Z,98887.88
2022-12-08T07:09:32.310Z,98884.34
2022-12-08T07:10:38.236Z,98890.47
2022-12-08T07:11:44.709Z,98883.25
2022-12-08T07:12:52.851Z,98882.63
2022-12-08T07:13:58.642Z,98887.03
2022-12-08T07:15:20.113Z,98891.63
2022-12-08T07:16:25.339Z,98884.72
2022-12-08T07:17:30.852Z,98886.38
2022-12-08T07:18:38.142Z,98887.13
2022-12-08T07:19:45.065Z,98887.88
2022-12-08T07:20:51.027Z,98887.13
2022-12-08T07:21:54.764Z,98889.63
2022-12-08T07:23:02.159Z,98887.75
2022-12-08T07:24:14.163Z,98889.63
2022-12-08T07:25:22.408Z,98893.84
2022-12-08T07:26:27.442Z,98890.28
2022-12-08T07:27:36.583Z,98887.47
2022-12-08T07:28:46.110Z,98892.75
2022-12-08T07:29:54.355Z,98888.41
2022-12-08T07:31:00.699Z,98893.59
2022-12-08T07:32:08.730Z,98893.53
2022-12-08T07:33:13.604Z,98892.75
2022-12-08T07:34:20.446Z,98892.50
2022-12-08T07:35:26.158Z,98891.66
2022-12-08T07:36:38.327Z,98892.34
2022-12-08T07:37:43.923Z,98887.06
2022-12-08T07:38:48.599Z,98884.44
2022-12-08T07:39:55.467Z,98889.56
2022-12-08T07:41:02.614Z,98897.28
2022-12-08T07:42:13.698Z,98897.22
2022-12-08T07:43:23.846Z,98886.59
2022-12-08T07:44:29.132Z,98890.16
2022-12-08T07:45:35.584Z,98891.69
2022-12-08T07:46:40.193Z,98898.66
2022-12-08T07:47:46.123Z,98894.22
2022-12-08T07:48:51.029Z,98889.66
2022-12-08T07:49:56.216Z,98896.72
2022-12-08T07:51:07.195Z,98888.81
2022-12-08T07:52:14.400Z,98894.00
2022-12-08T07:53:18.362Z,98887.97
2022-12-08T07:54:22.702Z,98891.28
2022-12-08T07:55:33.312Z,98899.09
2022-12-08T07:56:45.283Z,98895.53
2022-12-08T07:57:54.006Z,98895.44
2022-12-08T07:59:04.304Z,98890.19
2022-12-08T08:00:14.930Z,98894.34
2022-12-08T08:01:37.602Z,98899.47
2022-12-08T08:02:46.123Z,98894.28
2022-12-08T08:03:54.032Z,98903.53
2022-12-08T08:05:06.785Z,98904.22
2022-12-08T08:06:15.892Z,98903.88
2022-12-08T08:07:20.955Z,98901.84
2022-12-08T08:08:24.623Z,98895.50
2022-12-08T08:09:28.380Z,98898.66
2022-12-08T08:10:33.518Z,98896.69
2022-12-08T08:11:37.368Z,98899.25
2022-12-08T08:12:41.000Z,98897.38
2022-12-08T08:13:44.708Z,98897.19
2022-12-08T08:14:48.449Z,98899.75
2022-12-08T08:15:51.958Z,98893.25
2022-12-08T08:16:55.897Z,98898.19
2022-12-08T08:17:59.402Z,98891.91
2022-12-08T08:19:04.810Z,98890.78
2022-12-08T08:20:17.636Z,98897.69
2022-12-08T08:21:45.173Z,98893.94
2022-12-08T08:22:58.165Z,98893.59
2022-12-08T08:24:11.945Z,98886.09
2022-12-08T08:25:25.339Z,98891.19
2022-12-08T08:26:33.472Z,98893.28
2022-12-08T08:27:44.026Z,98883.31
2022-12-08T08:28:50.674Z,98884.72
2022-12-08T08:29:58.730Z,98886.06
2022-12-08T08:31:03.868Z,98880.53
2022-12-08T08:32:15.380Z,98888.84
2022-12-08T08:33:21.628Z,98879.81
2022-12-08T08:34:51.204Z,98879.41
2022-12-08T08:35:56.112Z,98886.44
2022-12-08T08:36:59.772Z,98886.22
2022-12-08T08:38:14.356Z,98889.06
2022-12-08T08:39:18.460Z,98886.97
2022-12-08T08:40:26.742Z,98885.84
2022-12-08T08:41:31.474Z,98889.25
2022-12-08T08:42:40.605Z,98885.00
2022-12-08T08:43:47.081Z,98885.84
2022-12-08T08:44:54.207Z,98890.19
2022-12-08T08:46:10.399Z,98883.03
2022-12-08T08:47:15.891Z,98889.09
2022-12-08T08:48:19.954Z,98890.56
2022-12-08T08:49:26.127Z,98886.25
2022-12-08T08:50:34.412Z,98893.97
2022-12-08T08:51:47.577Z,98877.19
2022-12-08T08:52:54.144Z,98883.81
2022-12-08T08:54:02.195Z,98890.78
2022-12-08T08:55:08.651Z,98888.41
2022-12-08T08:56:19.741Z,98891.72
2022-12-08T08:57:26.472Z,98881.53
2022-12-08T08:58:30.564Z,98877.38
2022-12-08T08:59:39.179Z,98884.16
2022-12-08T09:00:46.151Z,98887.75
2022-12-08T09:01:50.022Z,98882.19
2022-12-08T09:02:56.808Z,98884.34
2022-12-08T09:04:11.284Z,98884.22
2022-12-08T09:05:18.543Z,98883.59
2022-12-08T09:06:24.712Z,98883.59
2022-12-08T09:07:35.290Z,98885.97
2022-12-08T09:08:44.156Z,98884.81
2022-12-08T09:09:48.622Z,98878.97
2022-12-08T09:11:21.633Z,98876.25
2022-12-08T09:12:24.323Z,98872.94
2022-12-08T09:13:30.467Z,98878.91
2022-12-08T09:14:34.968Z,98874.75
2022-12-08T09:15:40.367Z,98874.16
2022-12-08T09:16:46.479Z,98866.56
2022-12-08T09:17:51.063Z,98871.72
2022-12-08T09:18:57.509Z,98871.16
2022-12-08T09:20:05.668Z,98869.81
2022-12-08T09:21:23.143Z,98871.91
2022-12-08T09:22:31.914Z,98865.31
2022-12-08T09:23:36.855Z,98866.06
2022-12-08T09:24:40.964Z,98866.81
2022-12-08T09:25:47.321Z,98861.53
2022-12-08T09:26:56.731Z,98865.75
2022-12-08T09:28:02.118Z,98865.13
2022-12-08T09:29:06.657Z,98860.59
2022-12-08T09:30:10.744Z,98866.53
2022-12-08T09:31:15.716Z,98859.47
2022-12-08T09:32:22.279Z,98854.19
2022-12-08T09:33:30.592Z,98854.19
2022-12-08T09:34:38.837Z,98860.13
2022-12-08T09:35:44.032Z,98853.13
2022-12-08T09:36:48.874Z,98854.75
2022-12-08T09:37:52.971Z,98852.88
2022-12-08T09:38:58.178Z,98847.97
2022-12-08T09:40:10.792Z,98854.00
2022-12-08T09:41:58.459Z,98842.88
2022-12-08T09:43:18.335Z,98841.94
2022-12-08T09:44:47.855Z,98849.47
2022-12-08T09:45:53.532Z,98842.47
2022-12-08T09:47:24.085Z,98846.25
2022-12-08T09:48:42.876Z,98848.06
2022-12-08T09:51:28.246Z,98836.56
2022-12-08T09:52:55.588Z,98832.50
2022-12-08T09:54:31.673Z,98842.75
2022-12-08T09:56:06.920Z,98839.06
2022-12-08T09:57:22.941Z,98842.00
2022-12-08T09:59:18.466Z,98831.63
2022-12-08T10:00:24.956Z,98834.84
2022-12-08T10:01:42.408Z,98833.78
2022-12-08T10:02:52.966Z,98829.09
2022-12-08T10:05:21.850Z,98827.03
2022-12-08T10:06:48.193Z,98824.09
2022-12-08T10:08:13.321Z,98821.44
2022-12-08T10:09:43.089Z,98816.06
2022-12-08T10:11:00.088Z,98824.00
2022-12-08T10:12:41.815Z,98818.34
2022-12-08T10:14:31.550Z,98818.53
2022-12-08T10:16:42.199Z,98828.25
2022-12-08T10:17:55.491Z,98828.69
2022-12-08T10:19:26.945Z,98823.78
2022-12-08T10:20:47.704Z,98820.88
2022-12-08T10:21:57.843Z,98817.47
2022-12-08T10:23:04.946Z,98826.81
2022-12-08T10:24:38.697Z,98824.75
2022-12-08T10:26:17.058Z,98823.81
2022-12-08T10:27:36.430Z,98815.63
2022-12-08T10:28:45.167Z,98821.81
2022-12-08T10:29:54.038Z,98823.53
2022-12-08T10:30:58.992Z,98817.22
2022-12-08T10:32:24.752Z,98820.97
2022-12-08T10:33:47.325Z,98816.94
2022-12-08T10:35:23.164Z,98820.41
2022-12-08T10:36:58.219Z,98819.47
2022-12-08T10:38:12.235Z,98809.03
2022-12-08T10:39:40.814Z,98819.28
2022-12-08T10:40:50.934Z,98817.47
2022-12-08T10:42:02.007Z,98826.09
2022-12-08T10:43:28.975Z,98814.59
2022-12-08T10:44:33.802Z,98813.84
2022-12-08T10:45:42.109Z,98811.00
2022-12-08T10:46:54.405Z,98812.44
2022-12-08T10:48:28.526Z,98813.00
2022-12-08T10:49:33.796Z,98811.25
2022-12-08T10:50:45.619Z,98810.16
2022-12-08T10:51:49.697Z,98809.09
2022-12-08T10:53:05.419Z,98809.22
2022-12-08T10:54:38.716Z,98809.22
2022-12-08T10:55:57.910Z,98806.66
2022-12-08T10:57:01.733Z,98799.59
2022-12-08T10:58:06.834Z,98797.72
2022-12-08T10:59:20.923Z,98799.34
2022-12-08T11:00:29.191Z,98794.22
2022-12-08T11:01:55.216Z,98802.03
2022-12-08T11:03:22.372Z,98794.06
2022-12-08T11:04:39.947Z,98800.81
2022-12-08T11:05:44.401Z,98801.03
2022-12-08T11:06:53.901Z,98791.78
2022-12-08T11:08:03.115Z,98795.16
2022-12-08T11:09:21.454Z,98790.09
2022-12-08T11:10:43.886Z,98792.53
2022-12-08T11:11:53.895Z,98787.47
2022-12-08T11:13:12.330Z,98795.38
2022-12-08T11:14:49.333Z,98792.81
2022-12-08T11:15:58.922Z,98786.13
2022-12-08T11:17:39.307Z,98792.41
2022-12-08T11:18:55.014Z,98790.94
2022-12-08T11:20:10.981Z,98789.69
2022-12-08T11:21:20.926Z,98786.19
2022-12-08T11:22:36.110Z,98784.34
2022-12-08T11:23:56.703Z,98792.06
2022-12-08T11:25:44.901Z,98790.38
2022-12-08T11:26:59.411Z,98790.56
2022-12-08T11:28:18.787Z,98785.56
2022-12-08T11:29:27.856Z,98779.34
2022-12-08T11:30:47.609Z,98791.00
2022-12-08T11:32:01.234Z,98791.78
2022-12-08T11:33:29.962Z,98781.22
2022-12-08T11:35:07.316Z,98788.94
2022-12-08T11:36:17.907Z,98791.22
2022-12-08T11:37:48.162Z,98794.44
2022-12-08T11:39:06.547Z,98785.19
2022-12-08T11:40:46.939Z,98782.72
2022-12-08T11:41:57.949Z,98783.66
2022-12-08T11:43:35.330Z,98783.41
2022-12-08T11:45:00.777Z,98777.28
2022-12-08T11:46:37.749Z,98781.41
2022-12-08T11:47:56.113Z,98782.19
2022-12-08T11:49:20.091Z,98786.50
2022-12-08T11:50:50.608Z,98788.00
2022-12-08T11:52:09.769Z,98791.59
2022-12-08T11:54:03.348Z,98784.41
2022-12-08T11:55:37.587Z,98781.03
2022-12-08T11:57:04.128Z,98787.47
2022-12-08T11:58:41.643Z,98784.03
2022-12-08T11:59:56.220Z,98785.56
2022-12-08T12:01:02.958Z,98781.03
2022-12-08T12:02:24.346Z,98784.63
2022-12-08T12:03:50.722Z,98782.09
2022-12-08T12:05:07.733Z,98781.41
2022-12-08T12:06:55.858Z,98784.81
2022-12-08T12:08:53.394Z,98780.19
2022-12-08T12:10:52.961Z,98784.34
2022-12-08T12:12:16.021Z,98787.72
2022-12-08T12:14:31.133Z,98785.09
2022-12-08T12:16:30.284Z,98789.63
2022-12-08T12:17:49.277Z,98787.53
2022-12-08T12:19:01.200Z,98788.38
2022-12-08T12:20:25.327Z,98784.72
2022-12-08T12:21:43.736Z,98785.47
2022-12-08T12:23:17.882Z,98784.41
2022-12-08T12:24:47.912Z,98786.31
2022-12-08T12:26:15.234Z,98788.00
2022-12-08T12:27:41.757Z,98787.06
2022-12-08T12:29:08.537Z,98787.06
2022-12-08T12:30:52.959Z,98774.66
2022-12-08T12:32:07.947Z,98783.41
2022-12-08T12:33:19.748Z,98778.97
2022-12-08T12:34:39.528Z,98771.22
2022-12-08T12:35:49.755Z,98774.66
2022-12-08T12:37:15.807Z,98775.28
2022-12-08T12:38:55.810Z,98780.66
2022-12-08T12:40:05.226Z,98782.34
2022-12-08T12:41:34.455Z,98777.94
2022-12-08T12:42:51.178Z,98772.66
2022-12-08T12:44:43.811Z,98770.75
2022-12-08T12:45:53.903Z,98762.09
2022-12-08T12:47:15.353Z,98762.94
2022-12-08T12:48:26.863Z,98766.72
2022-12-08T12:49:41.150Z,98766.53
2022-12-08T12:50:55.385Z,98758.72
2022-12-08T12:51:58.794Z,98760.41
2022-12-08T12:53:27.298Z,98764.84
2022-12-08T12:54:32.226Z,98757.88
2022-12-08T12:56:04.214Z,98761.25
2022-12-08T12:57:20.302Z,98762.09
2022-12-08T12:58:30.278Z,98756.81
2022-12-08T12:59:55.639Z,98759.56
2022-12-08T13:01:40.575Z,98759.81
2022-12-08T13:02:49.290Z,98758.13
2022-12-08T13:04:11.591Z,98758.88
2022-12-08T13:05:48.770Z,98758.88
2022-12-08T13:06:53.009Z,98761.63
2022-12-08T13:08:38.009Z,98749.47
2022-12-08T13:09:47.513Z,98748.81
2022-12-08T13:11:12.188Z,98754.84
2022-12-08T13:12:29.385Z,98752.84
2022-12-08T13:13:36.609Z,98753.81
2022-12-08T13:14:53.171Z,98751.28
2022-12-08T13:16:19.087Z,98746.84
2022-12-08T13:17:33.379Z,98749.56
2022-12-08T13:18:49.884Z,98752.22
2022-12-08T13:20:00.323Z,98747.78
2022-12-08T13:21:46.354Z,98752.22
2022-12-08T13:23:13.725Z,98739.41
2022-12-08T13:24:38.294Z,98752.50
2022-12-08T13:25:49.282Z,98750.59
2022-12-08T13:27:17.536Z,98756.66
2022-12-08T13:28:34.312Z,98750.53
2022-12-08T13:29:44.146Z,98751.28
2022-12-08T13:31:14.953Z,98747.13
2022-12-08T13:33:18.412Z,98748.81
2022-12-08T13:34:52.802Z,98748.16
2022-12-08T13:36:26.140Z,98754.28
2022-12-08T13:37:54.412Z,98747.13
2022-12-08T13:39:07.898Z,98749.94
2022-12-08T13:40:34.821Z,98746.38
2022-12-08T13:41:58.512Z,98744.47
2022-12-08T13:43:45.142Z,98746.25
2022-12-08T13:46:18.315Z,98736.00
2022-12-08T13:56:52.453Z,98738.72
2022-12-08T13:57:35.692Z,98732.59
2022-12-08T13:58:42.010Z,98739.78
2022-12-08T13:59:49.867Z,98743.16
2022-12-08T14:01:27.653Z,98736.09
2022-12-08T14:02:47.859Z,98736.50
2022-12-08T14:04:37.586Z,98735.53
2022-12-08T14:06:12.161Z,98744.31
2022-12-08T14:07:12.319Z,98745.25
2022-12-08T14:10:00.538Z,98740.03
2022-12-08T14:11:07.889Z,98746.25
2022-12-08T14:12:28.362Z,98747.88
2022-12-08T14:13:34.369Z,98741.84
2022-12-08T14:16:42.735Z,98758.44
2022-12-08T14:17:57.772Z,98747.13
2022-12-08T14:19:21.576Z,98752.31
2022-12-08T14:21:12.074Z,98741.75
2022-12-08T14:22:20.873Z,98747.13
2022-12-08T14:23:24.513Z,98747.31
2022-12-08T14:24:35.833Z,98747.22
2022-12-08T14:25:49.762Z,98752.50
2022-12-08T14:27:02.024Z,98749.84
2022-12-08T14:28:13.324Z,98754.28
2022-12-08T14:29:52.938Z,98751.66
2022-12-08T14:31:04.130Z,98756.91
2022-12-08T14:32:34.264Z,98749.09
2022-12-08T14:33:41.644Z,98751.84
2022-12-08T14:35:02.766Z,98748.44
2022-12-08T14:36:17.814Z,98752.75
2022-12-08T14:37:27.445Z,98745.88
2022-12-08T14:38:33.158Z,98745.78
2022-12-08T14:39:46.130Z,98742.22
2022-12-08T14:41:15.013Z,98734.28
2022-12-08T14:42:29.077Z,98745.78
2022-12-08T14:43:34.329Z,98744.94
2022-12-08T14:44:42.300Z,98738.81
2022-12-08T14:45:57.593Z,98738.81
2022-12-08T14:47:18.883Z,98745.78
2022-12-08T14:48:30.982Z,98745.78
2022-12-08T14:49:40.159Z,98744.09